Songa Peace — V7CY5 — position and weather

sailwx.info

Track history (hours):
 
Tides and Currents Weather Stations Pressure Air Temp Water Temp Dewpoint Dewpoint Depression Visibility Wind Speed Wind Dir Waves Ship Positions

Songa Peace

Last reported at 2018-May-10 15:08 UTC. Time now 2018-May-24 06:24 UTC.
Position N 28°36' W 093°12'.
Warning: this ship's position is 13 days out of date.

Length 137 m; draft 9.8 m.

Type: Ship. MMSI: 538005348.

Date/timePositionNaut miles runAvg speedWind from/ knotsBaromVisibWave heightAir tempDewpointWater temp
2018-May-10 15:08N 28°36' W 093°12'213.0
2018-May-10 15:00N 28°38' W 093°12'613.0
2018-May-10 14:31N 28°44' W 093°12'713.1
2018-May-10 14:00N 28°51' W 093°12'713.2
2018-May-10 13:31N 28°57' W 093°13'613.0
2018-May-10 13:01N 29°04' W 093°13'612.8
2018-May-10 12:30N 29°10' W 093°13'612.6
2018-May-10 12:00N 29°17' W 093°13'612.5
2018-May-10 11:30N 29°23' W 093°13'711.9
2018-May-10 10:57N 29°29' W 093°13'510.3
2018-May-10 10:30N 29°34' W 093°15'5 9.3
2018-May-10 10:00N 29°37' W 093°19'5 9.5
2018-May-10 09:28N 29°42' W 093°20'4 9.4
2018-May-10 09:00N 29°46' W 093°21'4 8.8
2018-May-10 08:30N 29°51' W 093°21'5 9.2
2018-May-10 08:00N 29°55' W 093°20'4 8.9
2018-May-10 07:30N 29°60' W 093°20'4 7.0
2018-May-10 07:00N 30°03' W 093°20'4 7.4
2018-May-10 06:31N 30°07' W 093°20'3 5.3
2018-May-10 06:01N 30°10' W 093°19'2 3.4
2018-May-10 05:31N 30°11' W 093°18'0 0.3
2018-May-10 05:00N 30°11' W 093°18'0 0.0
2018-May-10 04:29N 30°11' W 093°18'0 0.0
2018-May-10 03:59N 30°11' W 093°18'0 0.0
2018-May-10 03:29N 30°11' W 093°18'0 0.0
2018-May-10 02:56N 30°11' W 093°18'0 0.0
2018-May-10 02:29N 30°11' W 093°18'0 0.0
2018-May-10 01:59N 30°11' W 093°18'0 0.0
2018-May-10 01:29N 30°11' W 093°18'0 0.0
2018-May-10 00:59N 30°11' W 093°18'0 0.0
2018-May-10 00:29N 30°11' W 093°18'0 0.0
2018-May-09 23:59N 30°11' W 093°18'0 0.0
2018-May-09 23:29N 30°11' W 093°18'0 0.0
2018-May-09 22:59N 30°11' W 093°18'0 0.1
2018-May-09 22:29N 30°11' W 093°18'0 0.0
2018-May-09 21:59N 30°11' W 093°18'0 0.0
2018-May-09 21:29N 30°11' W 093°18'0 0.0
2018-May-09 20:59N 30°11' W 093°18'0 0.0
2018-May-09 20:29N 30°11' W 093°18'0 0.1
2018-May-09 19:59N 30°11' W 093°18'0 0.0
2018-May-09 19:29N 30°11' W 093°18'0 0.0
2018-May-09 18:56N 30°11' W 093°18'0 0.0
2018-May-09 18:29N 30°11' W 093°18'0 0.0
2018-May-09 17:56N 30°11' W 093°18'0 0.0
2018-May-09 17:29N 30°11' W 093°18'0 0.1
2018-May-09 16:59N 30°11' W 093°18'0 0.4
2018-May-09 16:30N 30°11' W 093°18'2 4.2
2018-May-09 16:00N 30°13' W 093°17'1 1.6
2018-May-09 15:29N 30°13' W 093°17'0 0.0
2018-May-09 14:59N 30°13' W 093°17'0 0.0
2018-May-09 14:29N 30°13' W 093°17'0 0.0
2018-May-09 13:59N 30°13' W 093°17'0 0.0
2018-May-09 10:14N 30°13' W 093°17'0 0.0
2018-May-09 09:05N 30°13' W 093°17'0 0.1
2018-May-09 08:56N 30°13' W 093°17'0 0.0
2018-May-09 08:29N 30°13' W 093°17'0 0.0
2018-May-09 07:56N 30°13' W 093°17'0 0.0
2018-May-09 07:26N 30°13' W 093°17'0 0.0
2018-May-09 06:59N 30°13' W 093°17'0 0.0
2018-May-09 04:56N 30°13' W 093°17'0 0.0
2018-May-09 04:20N 30°13' W 093°17'0 0.0
2018-May-09 03:59N 30°13' W 093°17'0 0.0
2018-May-09 03:23N 30°13' W 093°17'0 0.0
2018-May-09 02:53N 30°13' W 093°17'0 0.0
2018-May-09 01:59N 30°13' W 093°17'0 0.0
2018-May-09 01:29N 30°13' W 093°17'0 0.0
2018-May-09 00:56N 30°13' W 093°17'0 0.0
2018-May-09 00:26N 30°13' W 093°17'0 0.0
2018-May-08 23:59N 30°13' W 093°17'0 0.0
2018-May-08 23:29N 30°13' W 093°17'0 0.0
2018-May-08 22:59N 30°13' W 093°17'0 0.0
2018-May-08 22:29N 30°13' W 093°17'0 0.0
2018-May-08 21:59N 30°13' W 093°17'0 0.0
2018-May-08 21:23N 30°13' W 093°17'0 0.0
2018-May-08 20:59N 30°13' W 093°17'0 0.0
2018-May-08 20:29N 30°13' W 093°17'0 0.0
2018-May-08 19:59N 30°13' W 093°17'0 0.0
2018-May-08 19:26N 30°13' W 093°17'0 0.0
2018-May-08 18:53N 30°13' W 093°17'0 0.0
2018-May-08 18:29N 30°13' W 093°17'0 0.0
2018-May-08 17:59N 30°13' W 093°17'0 0.0
2018-May-08 16:53N 30°13' W 093°17'0 0.0
2018-May-08 16:26N 30°13' W 093°17'0 0.0
2018-May-08 15:59N 30°13' W 093°17'0 0.0
2018-May-08 15:14N 30°13' W 093°17'0 0.0
2018-May-08 14:59N 30°13' W 093°17'0 0.0
2018-May-08 14:17N 30°13' W 093°17'0 0.0
2018-May-08 13:50N 30°13' W 093°17'0 0.0
2018-May-08 13:26N 30°13' W 093°17'0 0.0
2018-May-08 12:59N 30°13' W 093°17'0 0.0
2018-May-08 11:48N 30°13' W 093°17'0 0.1
2018-May-08 11:30N 30°13' W 093°17'2 3.7
2018-May-08 11:00N 30°12' W 093°17'2 4.9
2018-May-08 10:30N 30°10' W 093°19'3 6.3
2018-May-08 10:00N 30°07' W 093°20'4 7.4
2018-May-08 09:29N 30°03' W 093°20'4 7.5
2018-May-08 09:00N 29°59' W 093°20'4 8.9
2018-May-08 08:30N 29°55' W 093°20'510.3
2018-May-08 08:00N 29°50' W 093°21'5 9.3
2018-May-08 07:30N 29°45' W 093°21'510.8
2018-May-08 07:00N 29°40' W 093°20'3 6.4
2018-May-08 06:30N 29°38' W 093°17'1 2.5
2018-May-08 06:00N 29°37' W 093°16'0 0.0
2018-May-08 05:24N 29°37' W 093°16'0 0.0
2018-May-08 04:57N 29°37' W 093°16'0 0.0
2018-May-08 04:27N 29°37' W 093°16'0 0.0
2018-May-08 03:57N 29°37' W 093°16'0 0.0
2018-May-08 03:27N 29°37' W 093°16'0 0.0
2018-May-08 03:00N 29°37' W 093°16'0 0.0
2018-May-08 02:30N 29°37' W 093°16'0 0.0
2018-May-08 02:00N 29°37' W 093°16'0 0.0
2018-May-08 01:27N 29°37' W 093°16'0 0.0
2018-May-08 00:54N 29°37' W 093°16'0 0.0
2018-May-08 00:30N 29°37' W 093°16'0 0.0
2018-May-08 00:00N 29°37' W 093°16'0 0.0
2018-May-07 23:30N 29°37' W 093°16'0 0.0
2018-May-07 23:00N 29°37' W 093°16'0 0.0
2018-May-07 22:30N 29°37' W 093°16'0 0.0
2018-May-07 22:00N 29°37' W 093°16'0 0.0
2018-May-07 21:27N 29°37' W 093°16'0 0.0
2018-May-07 20:57N 29°37' W 093°16'0 0.1
2018-May-07 20:30N 29°37' W 093°16'0 0.1
2018-May-07 19:57N 29°37' W 093°16'0 0.1
2018-May-07 19:30N 29°37' W 093°16'0 0.0
2018-May-07 18:33N 29°37' W 093°16'0 0.0
2018-May-07 18:09N 29°37' W 093°16'0 0.0
2018-May-07 15:33N 29°37' W 093°16'0 0.1
2018-May-07 15:30N 29°37' W 093°16'0 0.0
2018-May-07 15:00N 29°37' W 093°16'0 0.0
2018-May-07 14:27N 29°37' W 093°16'0 0.0
2018-May-07 14:00N 29°37' W 093°16'0 0.0
2018-May-07 13:30N 29°37' W 093°16'0 0.0
2018-May-07 12:45N 29°37' W 093°16'0 0.1
2018-May-07 12:30N 29°37' W 093°16'0 0.0
2018-May-07 11:45N 29°37' W 093°16'0 0.0
2018-May-07 11:27N 29°37' W 093°16'0 0.0
2018-May-07 10:51N 29°37' W 093°16'0 0.0
2018-May-07 10:27N 29°37' W 093°16'0 0.0
2018-May-07 09:57N 29°37' W 093°16'0 0.0
2018-May-07 09:30N 29°37' W 093°16'0 0.0
2018-May-07 09:00N 29°37' W 093°16'0 0.0
2018-May-07 08:27N 29°37' W 093°16'0 0.0
2018-May-07 07:57N 29°37' W 093°16'0 0.0
2018-May-07 07:30N 29°37' W 093°16'0 0.0
2018-May-07 07:00N 29°37' W 093°16'0 0.0
2018-May-07 06:27N 29°37' W 093°16'0 0.0
2018-May-07 05:57N 29°37' W 093°16'0 0.0
2018-May-07 05:30N 29°37' W 093°16'0 0.0
2018-May-07 04:57N 29°37' W 093°16'0 0.0
2018-May-06 14:03N 29°37' W 093°16'0 0.0
2018-May-06 13:36N 29°37' W 093°16'0 0.1
2018-May-06 13:30N 29°37' W 093°16'0 0.0
2018-May-06 13:00N 29°37' W 093°16'0 0.0
2018-May-06 12:27N 29°37' W 093°16'0 0.0
2018-May-06 12:00N 29°37' W 093°16'0 0.0
2018-May-06 11:27N 29°37' W 093°16'0 0.0
2018-May-06 11:00N 29°37' W 093°16'0 0.0
2018-May-06 10:30N 29°37' W 093°16'0 0.0
2018-May-06 10:00N 29°37' W 093°16'0 0.0
2018-May-06 09:30N 29°37' W 093°16'0 0.0
2018-May-06 08:51N 29°37' W 093°16'0 0.0
2018-May-06 08:30N 29°37' W 093°16'0 0.0
2018-May-06 08:00N 29°37' W 093°16'0 0.0
2018-May-06 07:30N 29°37' W 093°16'0 0.0
2018-May-06 07:00N 29°37' W 093°16'0 0.0
2018-May-06 06:27N 29°37' W 093°16'  
2018-May-02 08:38N 19°13' W 096°08'0 0.0
2018-May-02 08:14N 19°13' W 096°08'0 0.0
2018-May-02 07:56N 19°13' W 096°08'0 0.0
2018-May-02 03:08N 19°13' W 096°08'0 0.0
2018-May-02 02:53N 19°13' W 096°08'0 0.0
2018-May-02 02:11N 19°13' W 096°08'0 0.0
2018-May-02 01:50N 19°13' W 096°08'0 0.0
2018-May-02 01:26N 19°13' W 096°08'0 0.0
2018-May-01 22:20N 19°13' W 096°08'0 1.3
2018-May-01 22:00N 19°12' W 096°08'5 8.8
2018-May-01 21:24N 19°10' W 096°03'1 0.4
2018-May-01 18:05N 19°09' W 096°04'0 0.0
2018-May-01 10:23N 19°09' W 096°04'0 0.0
2018-May-01 09:11N 19°09' W 096°04'7 3.1
2018-May-01 06:50N 19°13' W 095°57'512.2
2018-May-01 06:25N 19°15' W 095°52'1812.8
2018-May-01 04:59N 19°23' W 095°35'813.9
2018-May-01 04:25N 19°28' W 095°28'  
Track history (hours):
 
Tides and Currents Weather Stations Pressure Air Temp Water Temp Dewpoint Dewpoint Depression Visibility Wind Speed Wind Dir Waves Ship Positions

Songa Peace

Last reported at 2018-May-10 15:08 UTC. Time now 2018-May-24 06:24 UTC.
Position N 28°36' W 093°12'.
Warning: this ship's position is 13 days out of date.

Length 137 m; draft 9.8 m.

Type: Ship. MMSI: 538005348.

Date/timePositionNaut miles runAvg speedWind from/ knotsBaromVisibWave heightAir tempDewpointWater temp
2018-May-10 15:08N 28°36' W 093°12'213.0
2018-May-10 15:00N 28°38' W 093°12'613.0
2018-May-10 14:31N 28°44' W 093°12'713.1
2018-May-10 14:00N 28°51' W 093°12'713.2
2018-May-10 13:31N 28°57' W 093°13'613.0
2018-May-10 13:01N 29°04' W 093°13'612.8
2018-May-10 12:30N 29°10' W 093°13'612.6
2018-May-10 12:00N 29°17' W 093°13'612.5
2018-May-10 11:30N 29°23' W 093°13'711.9
2018-May-10 10:57N 29°29' W 093°13'510.3
2018-May-10 10:30N 29°34' W 093°15'5 9.3
2018-May-10 10:00N 29°37' W 093°19'5 9.5
2018-May-10 09:28N 29°42' W 093°20'4 9.4
2018-May-10 09:00N 29°46' W 093°21'4 8.8
2018-May-10 08:30N 29°51' W 093°21'5 9.2
2018-May-10 08:00N 29°55' W 093°20'4 8.9
2018-May-10 07:30N 29°60' W 093°20'4 7.0
2018-May-10 07:00N 30°03' W 093°20'4 7.4
2018-May-10 06:31N 30°07' W 093°20'3 5.3
2018-May-10 06:01N 30°10' W 093°19'2 3.4
2018-May-10 05:31N 30°11' W 093°18'0 0.3
2018-May-10 05:00N 30°11' W 093°18'0 0.0
2018-May-10 04:29N 30°11' W 093°18'0 0.0
2018-May-10 03:59N 30°11' W 093°18'0 0.0
2018-May-10 03:29N 30°11' W 093°18'0 0.0
2018-May-10 02:56N 30°11' W 093°18'0 0.0
2018-May-10 02:29N 30°11' W 093°18'0 0.0
2018-May-10 01:59N 30°11' W 093°18'0 0.0
2018-May-10 01:29N 30°11' W 093°18'0 0.0
2018-May-10 00:59N 30°11' W 093°18'0 0.0
2018-May-10 00:29N 30°11' W 093°18'0 0.0
2018-May-09 23:59N 30°11' W 093°18'0 0.0
2018-May-09 23:29N 30°11' W 093°18'0 0.0
2018-May-09 22:59N 30°11' W 093°18'0 0.1
2018-May-09 22:29N 30°11' W 093°18'0 0.0
2018-May-09 21:59N 30°11' W 093°18'0 0.0
2018-May-09 21:29N 30°11' W 093°18'0 0.0
2018-May-09 20:59N 30°11' W 093°18'0 0.0
2018-May-09 20:29N 30°11' W 093°18'0 0.1
2018-May-09 19:59N 30°11' W 093°18'0 0.0
2018-May-09 19:29N 30°11' W 093°18'0 0.0
2018-May-09 18:56N 30°11' W 093°18'0 0.0
2018-May-09 18:29N 30°11' W 093°18'0 0.0
2018-May-09 17:56N 30°11' W 093°18'0 0.0
2018-May-09 17:29N 30°11' W 093°18'0 0.1
2018-May-09 16:59N 30°11' W 093°18'0 0.4
2018-May-09 16:30N 30°11' W 093°18'2 4.2
2018-May-09 16:00N 30°13' W 093°17'1 1.6
2018-May-09 15:29N 30°13' W 093°17'0 0.0
2018-May-09 14:59N 30°13' W 093°17'0 0.0
2018-May-09 14:29N 30°13' W 093°17'0 0.0
2018-May-09 13:59N 30°13' W 093°17'0 0.0
2018-May-09 10:14N 30°13' W 093°17'0 0.0
2018-May-09 09:05N 30°13' W 093°17'0 0.1
2018-May-09 08:56N 30°13' W 093°17'0 0.0
2018-May-09 08:29N 30°13' W 093°17'0 0.0
2018-May-09 07:56N 30°13' W 093°17'0 0.0
2018-May-09 07:26N 30°13' W 093°17'0 0.0
2018-May-09 06:59N 30°13' W 093°17'0 0.0
2018-May-09 04:56N 30°13' W 093°17'0 0.0
2018-May-09 04:20N 30°13' W 093°17'0 0.0
2018-May-09 03:59N 30°13' W 093°17'0 0.0
2018-May-09 03:23N 30°13' W 093°17'0 0.0
2018-May-09 02:53N 30°13' W 093°17'0 0.0
2018-May-09 01:59N 30°13' W 093°17'0 0.0
2018-May-09 01:29N 30°13' W 093°17'0 0.0
2018-May-09 00:56N 30°13' W 093°17'0 0.0
2018-May-09 00:26N 30°13' W 093°17'0 0.0
2018-May-08 23:59N 30°13' W 093°17'0 0.0
2018-May-08 23:29N 30°13' W 093°17'0 0.0
2018-May-08 22:59N 30°13' W 093°17'0 0.0
2018-May-08 22:29N 30°13' W 093°17'0 0.0
2018-May-08 21:59N 30°13' W 093°17'0 0.0
2018-May-08 21:23N 30°13' W 093°17'0 0.0
2018-May-08 20:59N 30°13' W 093°17'0 0.0
2018-May-08 20:29N 30°13' W 093°17'0 0.0
2018-May-08 19:59N 30°13' W 093°17'0 0.0
2018-May-08 19:26N 30°13' W 093°17'0 0.0
2018-May-08 18:53N 30°13' W 093°17'0 0.0
2018-May-08 18:29N 30°13' W 093°17'0 0.0
2018-May-08 17:59N 30°13' W 093°17'0 0.0
2018-May-08 16:53N 30°13' W 093°17'0 0.0
2018-May-08 16:26N 30°13' W 093°17'0 0.0
2018-May-08 15:59N 30°13' W 093°17'0 0.0
2018-May-08 15:14N 30°13' W 093°17'0 0.0
2018-May-08 14:59N 30°13' W 093°17'0 0.0
2018-May-08 14:17N 30°13' W 093°17'0 0.0
2018-May-08 13:50N 30°13' W 093°17'0 0.0
2018-May-08 13:26N 30°13' W 093°17'0 0.0
2018-May-08 12:59N 30°13' W 093°17'0 0.0
2018-May-08 11:48N 30°13' W 093°17'0 0.1
2018-May-08 11:30N 30°13' W 093°17'2 3.7
2018-May-08 11:00N 30°12' W 093°17'2 4.9
2018-May-08 10:30N 30°10' W 093°19'3 6.3
2018-May-08 10:00N 30°07' W 093°20'4 7.4
2018-May-08 09:29N 30°03' W 093°20'4 7.5
2018-May-08 09:00N 29°59' W 093°20'4 8.9
2018-May-08 08:30N 29°55' W 093°20'510.3
2018-May-08 08:00N 29°50' W 093°21'5 9.3
2018-May-08 07:30N 29°45' W 093°21'510.8
2018-May-08 07:00N 29°40' W 093°20'3 6.4
2018-May-08 06:30N 29°38' W 093°17'1 2.5
2018-May-08 06:00N 29°37' W 093°16'0 0.0
2018-May-08 05:24N 29°37' W 093°16'0 0.0
2018-May-08 04:57N 29°37' W 093°16'0 0.0
2018-May-08 04:27N 29°37' W 093°16'0 0.0
2018-May-08 03:57N 29°37' W 093°16'0 0.0
2018-May-08 03:27N 29°37' W 093°16'0 0.0
2018-May-08 03:00N 29°37' W 093°16'0 0.0
2018-May-08 02:30N 29°37' W 093°16'0 0.0
2018-May-08 02:00N 29°37' W 093°16'0 0.0
2018-May-08 01:27N 29°37' W 093°16'0 0.0
2018-May-08 00:54N 29°37' W 093°16'0 0.0
2018-May-08 00:30N 29°37' W 093°16'0 0.0
2018-May-08 00:00N 29°37' W 093°16'0 0.0
2018-May-07 23:30N 29°37' W 093°16'0 0.0
2018-May-07 23:00N 29°37' W 093°16'0 0.0
2018-May-07 22:30N 29°37' W 093°16'0 0.0
2018-May-07 22:00N 29°37' W 093°16'0 0.0
2018-May-07 21:27N 29°37' W 093°16'0 0.0
2018-May-07 20:57N 29°37' W 093°16'0 0.1
2018-May-07 20:30N 29°37' W 093°16'0 0.1
2018-May-07 19:57N 29°37' W 093°16'0 0.1
2018-May-07 19:30N 29°37' W 093°16'0 0.0
2018-May-07 18:33N 29°37' W 093°16'0 0.0
2018-May-07 18:09N 29°37' W 093°16'0 0.0
2018-May-07 15:33N 29°37' W 093°16'0 0.1
2018-May-07 15:30N 29°37' W 093°16'0 0.0
2018-May-07 15:00N 29°37' W 093°16'0 0.0
2018-May-07 14:27N 29°37' W 093°16'0 0.0
2018-May-07 14:00N 29°37' W 093°16'0 0.0
2018-May-07 13:30N 29°37' W 093°16'0 0.0
2018-May-07 12:45N 29°37' W 093°16'0 0.1
2018-May-07 12:30N 29°37' W 093°16'0 0.0
2018-May-07 11:45N 29°37' W 093°16'0 0.0
2018-May-07 11:27N 29°37' W 093°16'0 0.0
2018-May-07 10:51N 29°37' W 093°16'0 0.0
2018-May-07 10:27N 29°37' W 093°16'0 0.0
2018-May-07 09:57N 29°37' W 093°16'0 0.0
2018-May-07 09:30N 29°37' W 093°16'0 0.0
2018-May-07 09:00N 29°37' W 093°16'0 0.0
2018-May-07 08:27N 29°37' W 093°16'0 0.0
2018-May-07 07:57N 29°37' W 093°16'0 0.0
2018-May-07 07:30N 29°37' W 093°16'0 0.0
2018-May-07 07:00N 29°37' W 093°16'0 0.0
2018-May-07 06:27N 29°37' W 093°16'0 0.0
2018-May-07 05:57N 29°37' W 093°16'0 0.0
2018-May-07 05:30N 29°37' W 093°16'0 0.0
2018-May-07 04:57N 29°37' W 093°16'0 0.0
2018-May-06 14:03N 29°37' W 093°16'0 0.0
2018-May-06 13:36N 29°37' W 093°16'0 0.1
2018-May-06 13:30N 29°37' W 093°16'0 0.0
2018-May-06 13:00N 29°37' W 093°16'0 0.0
2018-May-06 12:27N 29°37' W 093°16'0 0.0
2018-May-06 12:00N 29°37' W 093°16'0 0.0
2018-May-06 11:27N 29°37' W 093°16'0 0.0
2018-May-06 11:00N 29°37' W 093°16'0 0.0
2018-May-06 10:30N 29°37' W 093°16'0 0.0
2018-May-06 10:00N 29°37' W 093°16'0 0.0
2018-May-06 09:30N 29°37' W 093°16'0 0.0
2018-May-06 08:51N 29°37' W 093°16'0 0.0
2018-May-06 08:30N 29°37' W 093°16'0 0.0
2018-May-06 08:00N 29°37' W 093°16'0 0.0
2018-May-06 07:30N 29°37' W 093°16'0 0.0
2018-May-06 07:00N 29°37' W 093°16'0 0.0
2018-May-06 06:27N 29°37' W 093°16'  
2018-May-02 08:38N 19°13' W 096°08'0 0.0
2018-May-02 08:14N 19°13' W 096°08'0 0.0
2018-May-02 07:56N 19°13' W 096°08'0 0.0
2018-May-02 03:08N 19°13' W 096°08'0 0.0
2018-May-02 02:53N 19°13' W 096°08'0 0.0
2018-May-02 02:11N 19°13' W 096°08'0 0.0
2018-May-02 01:50N 19°13' W 096°08'0 0.0
2018-May-02 01:26N 19°13' W 096°08'0 0.0
2018-May-01 22:20N 19°13' W 096°08'0 1.3
2018-May-01 22:00N 19°12' W 096°08'5 8.8
2018-May-01 21:24N 19°10' W 096°03'1 0.4
2018-May-01 18:05N 19°09' W 096°04'0 0.0
2018-May-01 10:23N 19°09' W 096°04'0 0.0
2018-May-01 09:11N 19°09' W 096°04'7 3.1
2018-May-01 06:50N 19°13' W 095°57'512.2
2018-May-01 06:25N 19°15' W 095°52'1812.8
2018-May-01 04:59N 19°23' W 095°35'813.9
2018-May-01 04:25N 19°28' W 095°28'  

Dump ship's entire track history